sensor_id;sensor_type;location;lat;lon;timestamp;temperature;humidity
43089;DHT22;28709;52.030;5.652;2022-10-16T00:00:37;12.80;99.90
43089;DHT22;28709;52.030;5.652;2022-10-16T00:03:04;12.70;99.90
43089;DHT22;28709;52.030;5.652;2022-10-16T00:05:30;12.70;99.90
43089;DHT22;28709;52.030;5.652;2022-10-16T00:07:55;12.70;99.90
43089;DHT22;28709;52.030;5.652;2022-10-16T00:10:21;12.70;99.90
43089;DHT22;28709;52.030;5.652;2022-10-16T00:12:47;12.70;99.90
43089;DHT22;28709;52.030;5.652;2022-10-16T00:15:13;12.70;99.90
43089;DHT22;28709;52.030;5.652;2022-10-16T00:17:38;12.70;99.90
43089;DHT22;28709;52.030;5.652;2022-10-16T00:20:04;12.70;99.90
43089;DHT22;28709;52.030;5.652;2022-10-16T00:22:30;12.60;99.90
43089;DHT22;28709;52.030;5.652;2022-10-16T00:24:56;12.60;99.90
43089;DHT22;28709;52.030;5.652;2022-10-16T00:27:22;12.60;99.90
43089;DHT22;28709;52.030;5.652;2022-10-16T00:29:51;12.60;99.90
43089;DHT22;28709;52.030;5.652;2022-10-16T00:32:18;12.60;99.90
43089;DHT22;28709;52.030;5.652;2022-10-16T00:34:44;12.60;99.90
43089;DHT22;28709;52.030;5.652;2022-10-16T00:37:10;12.60;99.90
43089;DHT22;28709;52.030;5.652;2022-10-16T00:39:36;12.60;99.90
43089;DHT22;28709;52.030;5.652;2022-10-16T00:42:02;12.60;99.90
43089;DHT22;28709;52.030;5.652;2022-10-16T00:47:18;12.60;99.90
43089;DHT22;28709;52.030;5.652;2022-10-16T00:49:47;12.60;99.90
43089;DHT22;28709;52.030;5.652;2022-10-16T00:52:14;12.60;99.90
43089;DHT22;28709;52.030;5.652;2022-10-16T00:54:40;12.60;99.90
43089;DHT22;28709;52.030;5.652;2022-10-16T00:57:07;12.60;99.90
43089;DHT22;28709;52.030;5.652;2022-10-16T00:59:38;12.60;99.90
43089;DHT22;28709;52.030;5.652;2022-10-16T01:02:06;12.60;99.90
43089;DHT22;28709;52.030;5.652;2022-10-16T01:04:38;12.60;99.90
43089;DHT22;28709;52.030;5.652;2022-10-16T01:12:47;12.70;99.90
43089;DHT22;28709;52.030;5.652;2022-10-16T01:15:24;12.70;99.90
43089;DHT22;28709;52.030;5.652;2022-10-16T01:20:50;12.80;99.90
43089;DHT22;28709;52.030;5.652;2022-10-16T01:29:08;12.80;99.90
43089;DHT22;28709;52.030;5.652;2022-10-16T01:31:38;12.80;99.90
43089;DHT22;28709;52.030;5.652;2022-10-16T01:34:18;12.80;99.90
43089;DHT22;28709;52.030;5.652;2022-10-16T01:36:49;12.90;99.90
43089;DHT22;28709;52.030;5.652;2022-10-16T01:39:20;12.90;99.90
43089;DHT22;28709;52.030;5.652;2022-10-16T01:41:55;12.90;99.90
43089;DHT22;28709;52.030;5.652;2022-10-16T01:44:29;12.90;99.90
43089;DHT22;28709;52.030;5.652;2022-10-16T01:46:56;12.90;99.90
43089;DHT22;28709;52.030;5.652;2022-10-16T01:49:25;13.00;99.90
43089;DHT22;28709;52.030;5.652;2022-10-16T01:51:56;13.00;99.90
43089;DHT22;28709;52.030;5.652;2022-10-16T01:54:26;13.00;99.90
43089;DHT22;28709;52.030;5.652;2022-10-16T01:56:54;13.00;99.90
43089;DHT22;28709;52.030;5.652;2022-10-16T01:59:21;13.00;99.90
43089;DHT22;28709;52.030;5.652;2022-10-16T02:01:52;13.10;99.90
43089;DHT22;28709;52.030;5.652;2022-10-16T02:04:39;13.10;99.90
43089;DHT22;28709;52.030;5.652;2022-10-16T02:07:06;13.10;99.90
43089;DHT22;28709;52.030;5.652;2022-10-16T02:09:35;13.10;99.90
43089;DHT22;28709;52.030;5.652;2022-10-16T02:12:08;13.10;99.90
43089;DHT22;28709;52.030;5.652;2022-10-16T02:14:38;13.10;99.90
43089;DHT22;28709;52.030;5.652;2022-10-16T02:17:15;13.10;99.90
43089;DHT22;28709;52.030;5.652;2022-10-16T02:19:42;13.10;99.90
43089;DHT22;28709;52.030;5.652;2022-10-16T02:22:14;13.10;99.90
43089;DHT22;28709;52.030;5.652;2022-10-16T02:24:56;13.10;99.90
43089;DHT22;28709;52.030;5.652;2022-10-16T02:30:14;13.10;99.90
43089;DHT22;28709;52.030;5.652;2022-10-16T02:32:42;13.10;99.90
43089;DHT22;28709;52.030;5.652;2022-10-16T02:35:10;13.10;99.90
43089;DHT22;28709;52.030;5.652;2022-10-16T02:37:37;13.10;99.90
43089;DHT22;28709;52.030;5.652;2022-10-16T02:40:04;13.10;99.90
43089;DHT22;28709;52.030;5.652;2022-10-16T02:42:35;13.10;99.90
43089;DHT22;28709;52.030;5.652;2022-10-16T02:45:02;13.10;99.90
43089;DHT22;28709;52.030;5.652;2022-10-16T02:47:27;13.10;99.90
43089;DHT22;28709;52.030;5.652;2022-10-16T02:49:53;13.10;99.90
43089;DHT22;28709;52.030;5.652;2022-10-16T02:52:19;13.10;99.90
43089;DHT22;28709;52.030;5.652;2022-10-16T02:54:44;13.10;99.90
43089;DHT22;28709;52.030;5.652;2022-10-16T02:57:10;13.10;99.90
43089;DHT22;28709;52.030;5.652;2022-10-16T02:59:37;13.10;99.90
43089;DHT22;28709;52.030;5.652;2022-10-16T03:02:03;13.20;99.90
43089;DHT22;28709;52.030;5.652;2022-10-16T03:04:28;13.20;99.90
43089;DHT22;28709;52.030;5.652;2022-10-16T03:06:54;13.10;99.90
43089;DHT22;28709;52.030;5.652;2022-10-16T03:09:20;13.20;99.90
43089;DHT22;28709;52.030;5.652;2022-10-16T03:11:45;13.20;99.90
43089;DHT22;28709;52.030;5.652;2022-10-16T03:14:11;13.10;99.90
43089;DHT22;28709;52.030;5.652;2022-10-16T03:16:36;13.10;99.90
43089;DHT22;28709;52.030;5.652;2022-10-16T03:19:02;13.10;99.90
43089;DHT22;28709;52.030;5.652;2022-10-16T03:21:28;13.10;99.90
43089;DHT22;28709;52.030;5.652;2022-10-16T03:23:54;13.10;99.90
43089;DHT22;28709;52.030;5.652;2022-10-16T03:26:19;13.10;99.90
43089;DHT22;28709;52.030;5.652;2022-10-16T03:28:45;13.10;99.90
43089;DHT22;28709;52.030;5.652;2022-10-16T03:31:10;13.00;99.90
43089;DHT22;28709;52.030;5.652;2022-10-16T03:33:36;13.00;99.90
43089;DHT22;28709;52.030;5.652;2022-10-16T03:36:02;13.00;99.90
43089;DHT22;28709;52.030;5.652;2022-10-16T03:38:27;13.00;99.90
43089;DHT22;28709;52.030;5.652;2022-10-16T03:40:53;13.00;99.90
43089;DHT22;28709;52.030;5.652;2022-10-16T03:43:19;13.00;99.90
43089;DHT22;28709;52.030;5.652;2022-10-16T03:45:44;13.00;99.90
43089;DHT22;28709;52.030;5.652;2022-10-16T03:48:10;13.00;99.90
43089;DHT22;28709;52.030;5.652;2022-10-16T03:50:36;13.00;99.90
43089;DHT22;28709;52.030;5.652;2022-10-16T03:53:01;13.00;99.90
43089;DHT22;28709;52.030;5.652;2022-10-16T03:55:27;13.00;99.90
43089;DHT22;28709;52.030;5.652;2022-10-16T03:57:53;13.00;99.90
43089;DHT22;28709;52.030;5.652;2022-10-16T04:00:18;12.90;99.90
43089;DHT22;28709;52.030;5.652;2022-10-16T04:02:44;12.90;99.90
43089;DHT22;28709;52.030;5.652;2022-10-16T04:05:10;12.90;99.90
43089;DHT22;28709;52.030;5.652;2022-10-16T04:07:35;12.90;99.90
43089;DHT22;28709;52.030;5.652;2022-10-16T04:10:01;12.90;99.90
43089;DHT22;28709;52.030;5.652;2022-10-16T04:12:27;12.90;99.90
43089;DHT22;28709;52.030;5.652;2022-10-16T04:14:53;12.90;99.90
43089;DHT22;28709;52.030;5.652;2022-10-16T04:17:18;12.90;99.90
43089;DHT22;28709;52.030;5.652;2022-10-16T04:19:44;12.80;99.90
43089;DHT22;28709;52.030;5.652;2022-10-16T04:22:11;12.80;99.90
43089;DHT22;28709;52.030;5.652;2022-10-16T04:24:37;12.80;99.90
43089;DHT22;28709;52.030;5.652;2022-10-16T04:27:02;12.80;99.90
43089;DHT22;28709;52.030;5.652;2022-10-16T04:29:28;12.80;99.90
43089;DHT22;28709;52.030;5.652;2022-10-16T04:31:54;12.90;99.90
43089;DHT22;28709;52.030;5.652;2022-10-16T04:34:19;12.90;99.90
43089;DHT22;28709;52.030;5.652;2022-10-16T04:36:47;12.90;99.90
43089;DHT22;28709;52.030;5.652;2022-10-16T04:39:15;12.90;99.90
43089;DHT22;28709;52.030;5.652;2022-10-16T04:41:41;12.90;99.90
43089;DHT22;28709;52.030;5.652;2022-10-16T04:44:06;12.90;99.90
43089;DHT22;28709;52.030;5.652;2022-10-16T04:46:32;12.90;99.90
43089;DHT22;28709;52.030;5.652;2022-10-16T04:48:58;12.90;99.90
43089;DHT22;28709;52.030;5.652;2022-10-16T04:51:23;12.90;99.90
43089;DHT22;28709;52.030;5.652;2022-10-16T04:53:50;12.90;99.90
43089;DHT22;28709;52.030;5.652;2022-10-16T04:56:16;12.90;99.90
43089;DHT22;28709;52.030;5.652;2022-10-16T04:58:42;12.90;99.90
43089;DHT22;28709;52.030;5.652;2022-10-16T05:01:07;12.90;99.90
43089;DHT22;28709;52.030;5.652;2022-10-16T05:03:33;12.80;99.90
43089;DHT22;28709;52.030;5.652;2022-10-16T05:05:59;12.80;99.90
43089;DHT22;28709;52.030;5.652;2022-10-16T05:08:25;12.80;99.90
43089;DHT22;28709;52.030;5.652;2022-10-16T05:10:51;12.80;99.90
43089;DHT22;28709;52.030;5.652;2022-10-16T05:13:16;12.70;99.90
43089;DHT22;28709;52.030;5.652;2022-10-16T05:15:47;12.70;99.90
43089;DHT22;28709;52.030;5.652;2022-10-16T05:18:13;12.70;99.90
43089;DHT22;28709;52.030;5.652;2022-10-16T05:20:39;12.70;99.90
43089;DHT22;28709;52.030;5.652;2022-10-16T05:23:05;12.60;99.90
43089;DHT22;28709;52.030;5.652;2022-10-16T05:25:30;12.60;99.90
43089;DHT22;28709;52.030;5.652;2022-10-16T05:27:56;12.60;99.90
43089;DHT22;28709;52.030;5.652;2022-10-16T05:30:21;12.50;99.90
43089;DHT22;28709;52.030;5.652;2022-10-16T05:32:48;12.50;99.90
43089;DHT22;28709;52.030;5.652;2022-10-16T05:35:14;12.50;99.90
43089;DHT22;28709;52.030;5.652;2022-10-16T05:37:40;12.50;99.90
43089;DHT22;28709;52.030;5.652;2022-10-16T05:40:07;12.40;99.90
43089;DHT22;28709;52.030;5.652;2022-10-16T05:42:32;12.40;99.90
43089;DHT22;28709;52.030;5.652;2022-10-16T05:44:58;12.40;99.90
43089;DHT22;28709;52.030;5.652;2022-10-16T05:47:23;12.40;99.90
43089;DHT22;28709;52.030;5.652;2022-10-16T05:49:49;12.40;99.90
43089;DHT22;28709;52.030;5.652;2022-10-16T05:52:15;12.40;99.90
43089;DHT22;28709;52.030;5.652;2022-10-16T05:54:40;12.40;99.90
43089;DHT22;28709;52.030;5.652;2022-10-16T05:57:06;12.40;99.90
43089;DHT22;28709;52.030;5.652;2022-10-16T05:59:32;12.40;99.90
43089;DHT22;28709;52.030;5.652;2022-10-16T06:01:57;12.40;99.90
43089;DHT22;28709;52.030;5.652;2022-10-16T06:04:23;12.50;99.90
43089;DHT22;28709;52.030;5.652;2022-10-16T06:06:49;12.40;99.90
43089;DHT22;28709;52.030;5.652;2022-10-16T06:09:14;12.40;99.90
43089;DHT22;28709;52.030;5.652;2022-10-16T06:11:40;12.40;99.90
43089;DHT22;28709;52.030;5.652;2022-10-16T06:14:05;12.50;99.90
43089;DHT22;28709;52.030;5.652;2022-10-16T06:16:35;12.50;99.90
43089;DHT22;28709;52.030;5.652;2022-10-16T06:19:01;12.50;99.90
43089;DHT22;28709;52.030;5.652;2022-10-16T06:21:29;12.50;99.90
43089;DHT22;28709;52.030;5.652;2022-10-16T06:23:56;12.50;99.90
43089;DHT22;28709;52.030;5.652;2022-10-16T06:26:25;12.60;99.90
43089;DHT22;28709;52.030;5.652;2022-10-16T06:28:51;12.50;99.90
43089;DHT22;28709;52.030;5.652;2022-10-16T06:31:17;12.60;99.90
43089;DHT22;28709;52.030;5.652;2022-10-16T06:33:43;12.60;99.90
43089;DHT22;28709;52.030;5.652;2022-10-16T06:36:13;12.60;99.90
43089;DHT22;28709;52.030;5.652;2022-10-16T06:38:40;12.60;99.90
43089;DHT22;28709;52.030;5.652;2022-10-16T06:41:07;12.60;99.90
43089;DHT22;28709;52.030;5.652;2022-10-16T06:43:33;12.60;99.90
43089;DHT22;28709;52.030;5.652;2022-10-16T06:46:01;12.60;99.90
43089;DHT22;28709;52.030;5.652;2022-10-16T06:48:28;12.70;99.90
43089;DHT22;28709;52.030;5.652;2022-10-16T06:53:24;12.70;99.90
43089;DHT22;28709;52.030;5.652;2022-10-16T06:55:50;12.70;99.90
43089;DHT22;28709;52.030;5.652;2022-10-16T06:58:15;12.70;99.90
43089;DHT22;28709;52.030;5.652;2022-10-16T07:00:41;12.70;99.90
43089;DHT22;28709;52.030;5.652;2022-10-16T07:03:06;12.80;99.90
43089;DHT22;28709;52.030;5.652;2022-10-16T07:05:37;12.80;99.90
43089;DHT22;28709;52.030;5.652;2022-10-16T07:08:03;12.90;99.90
43089;DHT22;28709;52.030;5.652;2022-10-16T07:10:31;12.90;99.90
43089;DHT22;28709;52.030;5.652;2022-10-16T07:12:57;13.00;99.90
43089;DHT22;28709;52.030;5.652;2022-10-16T07:15:22;13.00;99.90
43089;DHT22;28709;52.030;5.652;2022-10-16T07:17:48;13.10;99.90
43089;DHT22;28709;52.030;5.652;2022-10-16T07:20:14;13.20;99.90
43089;DHT22;28709;52.030;5.652;2022-10-16T07:22:39;13.20;99.90
43089;DHT22;28709;52.030;5.652;2022-10-16T07:25:05;13.20;99.90
43089;DHT22;28709;52.030;5.652;2022-10-16T07:27:31;13.30;99.90
43089;DHT22;28709;52.030;5.652;2022-10-16T07:29:57;13.30;99.90
43089;DHT22;28709;52.030;5.652;2022-10-16T07:32:22;13.30;99.90
43089;DHT22;28709;52.030;5.652;2022-10-16T07:34:49;13.40;99.90
43089;DHT22;28709;52.030;5.652;2022-10-16T07:37:14;13.40;99.90
43089;DHT22;28709;52.030;5.652;2022-10-16T07:39:40;13.40;99.90
43089;DHT22;28709;52.030;5.652;2022-10-16T07:42:05;13.40;99.90
43089;DHT22;28709;52.030;5.652;2022-10-16T07:44:31;13.50;99.90
43089;DHT22;28709;52.030;5.652;2022-10-16T07:46:57;13.60;99.90
43089;DHT22;28709;52.030;5.652;2022-10-16T07:49:23;13.70;99.90
43089;DHT22;28709;52.030;5.652;2022-10-16T07:51:48;13.70;99.90
43089;DHT22;28709;52.030;5.652;2022-10-16T07:54:14;13.70;99.90
43089;DHT22;28709;52.030;5.652;2022-10-16T07:56:39;13.70;99.90
43089;DHT22;28709;52.030;5.652;2022-10-16T07:59:05;13.80;99.90
43089;DHT22;28709;52.030;5.652;2022-10-16T08:01:31;13.70;99.90
43089;DHT22;28709;52.030;5.652;2022-10-16T08:03:56;13.80;99.90
43089;DHT22;28709;52.030;5.652;2022-10-16T08:06:22;13.80;99.90
43089;DHT22;28709;52.030;5.652;2022-10-16T08:08:48;13.80;99.90
43089;DHT22;28709;52.030;5.652;2022-10-16T08:11:14;13.90;99.90
43089;DHT22;28709;52.030;5.652;2022-10-16T08:13:40;13.90;99.90
43089;DHT22;28709;52.030;5.652;2022-10-16T08:16:07;14.00;99.90
43089;DHT22;28709;52.030;5.652;2022-10-16T08:18:40;14.00;99.90
43089;DHT22;28709;52.030;5.652;2022-10-16T08:21:07;14.00;99.90
43089;DHT22;28709;52.030;5.652;2022-10-16T08:23:33;14.10;99.90
43089;DHT22;28709;52.030;5.652;2022-10-16T08:26:05;14.50;99.90
43089;DHT22;28709;52.030;5.652;2022-10-16T08:28:30;15.00;99.90
43089;DHT22;28709;52.030;5.652;2022-10-16T08:30:56;15.50;99.90
43089;DHT22;28709;52.030;5.652;2022-10-16T08:33:29;16.00;99.90
43089;DHT22;28709;52.030;5.652;2022-10-16T08:35:55;16.30;99.90
43089;DHT22;28709;52.030;5.652;2022-10-16T08:38:21;16.70;99.90
43089;DHT22;28709;52.030;5.652;2022-10-16T08:40:47;17.00;99.90
43089;DHT22;28709;52.030;5.652;2022-10-16T08:43:43;17.40;99.90
43089;DHT22;28709;52.030;5.652;2022-10-16T08:48:57;18.20;99.90
43089;DHT22;28709;52.030;5.652;2022-10-16T08:51:32;18.50;99.90
43089;DHT22;28709;52.030;5.652;2022-10-16T08:54:03;18.40;99.90
43089;DHT22;28709;52.030;5.652;2022-10-16T08:56:29;18.50;99.90
43089;DHT22;28709;52.030;5.652;2022-10-16T08:58:55;18.70;99.90
43089;DHT22;28709;52.030;5.652;2022-10-16T09:01:25;18.70;99.90
43089;DHT22;28709;52.030;5.652;2022-10-16T09:06:57;19.20;99.90
43089;DHT22;28709;52.030;5.652;2022-10-16T09:22:31;19.20;99.90
43089;DHT22;28709;52.030;5.652;2022-10-16T09:25:00;19.20;99.90
43089;DHT22;28709;52.030;5.652;2022-10-16T09:27:26;19.50;99.90
43089;DHT22;28709;52.030;5.652;2022-10-16T09:29:52;19.80;99.90
43089;DHT22;28709;52.030;5.652;2022-10-16T09:32:25;19.80;99.90
43089;DHT22;28709;52.030;5.652;2022-10-16T09:34:53;19.90;99.90
43089;DHT22;28709;52.030;5.652;2022-10-16T09:37:22;20.20;99.90
43089;DHT22;28709;52.030;5.652;2022-10-16T09:39:53;20.60;99.90
43089;DHT22;28709;52.030;5.652;2022-10-16T09:42:32;20.70;99.90
43089;DHT22;28709;52.030;5.652;2022-10-16T09:44:59;20.70;99.90
43089;DHT22;28709;52.030;5.652;2022-10-16T09:47:29;20.80;99.90
43089;DHT22;28709;52.030;5.652;2022-10-16T09:49:58;21.00;99.90
43089;DHT22;28709;52.030;5.652;2022-10-16T09:52:27;20.90;99.90
43089;DHT22;28709;52.030;5.652;2022-10-16T09:54:59;20.80;99.90
43089;DHT22;28709;52.030;5.652;2022-10-16T09:57:25;20.60;99.90
43089;DHT22;28709;52.030;5.652;2022-10-16T09:59:53;20.70;99.90
43089;DHT22;28709;52.030;5.652;2022-10-16T10:02:28;20.80;99.90
43089;DHT22;28709;52.030;5.652;2022-10-16T10:04:55;21.00;99.90
43089;DHT22;28709;52.030;5.652;2022-10-16T10:07:25;21.30;99.90
43089;DHT22;28709;52.030;5.652;2022-10-16T10:09:52;21.30;99.90
43089;DHT22;28709;52.030;5.652;2022-10-16T10:14:48;22.00;99.90
43089;DHT22;28709;52.030;5.652;2022-10-16T10:19:57;22.20;99.90
43089;DHT22;28709;52.030;5.652;2022-10-16T10:24:59;22.40;99.90
43089;DHT22;28709;52.030;5.652;2022-10-16T10:30:26;22.80;99.90
43089;DHT22;28709;52.030;5.652;2022-10-16T10:35:44;22.50;99.90
43089;DHT22;28709;52.030;5.652;2022-10-16T10:47:10;22.70;98.60
43089;DHT22;28709;52.030;5.652;2022-10-16T10:49:34;22.20;99.10
43089;DHT22;28709;52.030;5.652;2022-10-16T10:55:27;21.00;99.30
43089;DHT22;28709;52.030;5.652;2022-10-16T11:06:18;19.80;99.90
43089;DHT22;28709;52.030;5.652;2022-10-16T11:08:51;19.70;99.90
43089;DHT22;28709;52.030;5.652;2022-10-16T11:11:20;19.40;99.90
43089;DHT22;28709;52.030;5.652;2022-10-16T11:14:03;19.20;99.90
43089;DHT22;28709;52.030;5.652;2022-10-16T11:16:44;19.60;99.90
43089;DHT22;28709;52.030;5.652;2022-10-16T11:19:19;20.10;99.30
43089;DHT22;28709;52.030;5.652;2022-10-16T11:21:53;20.60;99.50
43089;DHT22;28709;52.030;5.652;2022-10-16T11:24:26;20.70;98.90
43089;DHT22;28709;52.030;5.652;2022-10-16T11:26:56;20.50;99.10
43089;DHT22;28709;52.030;5.652;2022-10-16T11:29:29;20.30;98.90
43089;DHT22;28709;52.030;5.652;2022-10-16T11:32:06;19.90;99.20
43089;DHT22;28709;52.030;5.652;2022-10-16T11:34:47;19.60;99.90
43089;DHT22;28709;52.030;5.652;2022-10-16T11:37:19;19.60;99.90
43089;DHT22;28709;52.030;5.652;2022-10-16T11:39:47;20.00;99.90
43089;DHT22;28709;52.030;5.652;2022-10-16T11:42:16;20.10;99.60
43089;DHT22;28709;52.030;5.652;2022-10-16T11:45:00;20.20;99.80
43089;DHT22;28709;52.030;5.652;2022-10-16T11:47:35;20.50;99.30
43089;DHT22;28709;52.030;5.652;2022-10-16T11:55:47;21.20;96.70
43089;DHT22;28709;52.030;5.652;2022-10-16T12:03:35;21.80;96.80
43089;DHT22;28709;52.030;5.652;2022-10-16T12:08:38;22.20;95.10
43089;DHT22;28709;52.030;5.652;2022-10-16T12:11:54;22.30;95.60
43089;DHT22;28709;52.030;5.652;2022-10-16T12:16:31;22.60;95.60
43089;DHT22;28709;52.030;5.652;2022-10-16T12:21:36;22.60;94.30
43089;DHT22;28709;52.030;5.652;2022-10-16T12:24:03;22.20;94.30
43089;DHT22;28709;52.030;5.652;2022-10-16T12:26:34;21.60;94.90
43089;DHT22;28709;52.030;5.652;2022-10-16T12:29:20;21.20;95.60
43089;DHT22;28709;52.030;5.652;2022-10-16T12:31:48;21.20;95.60
43089;DHT22;28709;52.030;5.652;2022-10-16T12:34:28;21.70;95.40
43089;DHT22;28709;52.030;5.652;2022-10-16T12:36:54;22.40;94.80
43089;DHT22;28709;52.030;5.652;2022-10-16T12:39:23;23.00;94.00
43089;DHT22;28709;52.030;5.652;2022-10-16T12:42:00;23.40;93.20
43089;DHT22;28709;52.030;5.652;2022-10-16T12:44:32;23.60;92.80
43089;DHT22;28709;52.030;5.652;2022-10-16T12:46:58;24.00;92.70
43089;DHT22;28709;52.030;5.652;2022-10-16T12:49:32;24.20;91.80
43089;DHT22;28709;52.030;5.652;2022-10-16T12:51:58;24.20;92.40
43089;DHT22;28709;52.030;5.652;2022-10-16T12:54:37;24.20;91.50
43089;DHT22;28709;52.030;5.652;2022-10-16T13:00:04;24.10;91.30
43089;DHT22;28709;52.030;5.652;2022-10-16T13:06:02;24.00;91.40
43089;DHT22;28709;52.030;5.652;2022-10-16T13:17:18;23.50;90.90
43089;DHT22;28709;52.030;5.652;2022-10-16T13:28:19;22.20;92.30
43089;DHT22;28709;52.030;5.652;2022-10-16T13:30:57;22.10;92.10
43089;DHT22;28709;52.030;5.652;2022-10-16T13:33:33;22.00;92.10
43089;DHT22;28709;52.030;5.652;2022-10-16T13:36:00;21.90;91.80
43089;DHT22;28709;52.030;5.652;2022-10-16T13:38:29;21.60;92.20
43089;DHT22;28709;52.030;5.652;2022-10-16T13:41:01;21.30;92.50
43089;DHT22;28709;52.030;5.652;2022-10-16T13:43:40;21.10;93.00
43089;DHT22;28709;52.030;5.652;2022-10-16T13:46:17;20.90;93.30
43089;DHT22;28709;52.030;5.652;2022-10-16T13:48:44;20.80;93.70
43089;DHT22;28709;52.030;5.652;2022-10-16T13:51:17;20.70;93.80
43089;DHT22;28709;52.030;5.652;2022-10-16T13:53:44;20.50;94.20
43089;DHT22;28709;52.030;5.652;2022-10-16T13:56:21;20.40;94.40
43089;DHT22;28709;52.030;5.652;2022-10-16T13:59:02;20.20;94.10
43089;DHT22;28709;52.030;5.652;2022-10-16T14:01:35;20.10;94.30
43089;DHT22;28709;52.030;5.652;2022-10-16T14:04:08;20.00;94.40
43089;DHT22;28709;52.030;5.652;2022-10-16T14:06:35;19.80;94.80
43089;DHT22;28709;52.030;5.652;2022-10-16T14:09:19;19.70;95.00
43089;DHT22;28709;52.030;5.652;2022-10-16T14:11:50;19.60;95.30
43089;DHT22;28709;52.030;5.652;2022-10-16T14:14:19;19.50;95.60
43089;DHT22;28709;52.030;5.652;2022-10-16T14:16:45;19.50;95.70
43089;DHT22;28709;52.030;5.652;2022-10-16T14:21:46;19.30;96.00
43089;DHT22;28709;52.030;5.652;2022-10-16T14:24:13;19.30;96.10
43089;DHT22;28709;52.030;5.652;2022-10-16T14:26:43;19.20;96.30
43089;DHT22;28709;52.030;5.652;2022-10-16T14:29:15;19.20;96.40
43089;DHT22;28709;52.030;5.652;2022-10-16T14:31:41;19.20;96.60
43089;DHT22;28709;52.030;5.652;2022-10-16T14:34:36;19.10;96.70
43089;DHT22;28709;52.030;5.652;2022-10-16T14:37:34;19.10;96.90
43089;DHT22;28709;52.030;5.652;2022-10-16T14:40:00;19.10;96.90
43089;DHT22;28709;52.030;5.652;2022-10-16T14:42:26;19.00;96.90
43089;DHT22;28709;52.030;5.652;2022-10-16T14:44:53;19.00;97.10
43089;DHT22;28709;52.030;5.652;2022-10-16T14:47:22;19.00;97.20
43089;DHT22;28709;52.030;5.652;2022-10-16T14:49:52;18.90;97.30
43089;DHT22;28709;52.030;5.652;2022-10-16T14:52:20;18.80;97.40
43089;DHT22;28709;52.030;5.652;2022-10-16T14:54:50;18.70;97.50
43089;DHT22;28709;52.030;5.652;2022-10-16T14:57:20;18.70;97.60
43089;DHT22;28709;52.030;5.652;2022-10-16T14:59:47;18.70;97.80
43089;DHT22;28709;52.030;5.652;2022-10-16T15:02:33;18.60;97.80
43089;DHT22;28709;52.030;5.652;2022-10-16T15:05:20;18.60;98.00
43089;DHT22;28709;52.030;5.652;2022-10-16T15:07:48;18.70;98.10
43089;DHT22;28709;52.030;5.652;2022-10-16T15:10:15;18.70;98.20
43089;DHT22;28709;52.030;5.652;2022-10-16T15:12:42;18.70;98.30
43089;DHT22;28709;52.030;5.652;2022-10-16T15:17:55;18.60;98.50
43089;DHT22;28709;52.030;5.652;2022-10-16T15:20:23;18.60;98.60
43089;DHT22;28709;52.030;5.652;2022-10-16T15:22:49;18.50;98.70
43089;DHT22;28709;52.030;5.652;2022-10-16T15:27:56;18.50;98.90
43089;DHT22;28709;52.030;5.652;2022-10-16T15:30:21;18.50;99.00
43089;DHT22;28709;52.030;5.652;2022-10-16T15:32:47;18.40;99.00
43089;DHT22;28709;52.030;5.652;2022-10-16T15:35:12;18.40;99.40
43089;DHT22;28709;52.030;5.652;2022-10-16T15:37:38;18.40;99.20
43089;DHT22;28709;52.030;5.652;2022-10-16T15:40:04;18.30;99.30
43089;DHT22;28709;52.030;5.652;2022-10-16T15:42:30;18.30;99.40
43089;DHT22;28709;52.030;5.652;2022-10-16T15:44:55;18.30;99.50
43089;DHT22;28709;52.030;5.652;2022-10-16T15:47:21;18.30;99.60
43089;DHT22;28709;52.030;5.652;2022-10-16T15:49:46;18.20;99.70
43089;DHT22;28709;52.030;5.652;2022-10-16T15:52:12;18.20;99.90
43089;DHT22;28709;52.030;5.652;2022-10-16T15:54:38;18.10;99.90
43089;DHT22;28709;52.030;5.652;2022-10-16T15:57:03;18.10;99.90
43089;DHT22;28709;52.030;5.652;2022-10-16T15:59:29;18.00;99.90
43089;DHT22;28709;52.030;5.652;2022-10-16T16:01:55;17.90;99.90
43089;DHT22;28709;52.030;5.652;2022-10-16T16:04:21;17.90;99.90
43089;DHT22;28709;52.030;5.652;2022-10-16T16:06:46;17.80;99.90
43089;DHT22;28709;52.030;5.652;2022-10-16T16:09:13;17.80;99.90
43089;DHT22;28709;52.030;5.652;2022-10-16T16:11:39;17.70;99.90
43089;DHT22;28709;52.030;5.652;2022-10-16T16:14:11;17.70;99.90
43089;DHT22;28709;52.030;5.652;2022-10-16T16:16:38;17.70;99.90
43089;DHT22;28709;52.030;5.652;2022-10-16T16:19:04;17.60;99.90
43089;DHT22;28709;52.030;5.652;2022-10-16T16:21:32;17.50;99.90
43089;DHT22;28709;52.030;5.652;2022-10-16T16:23:57;17.50;99.90
43089;DHT22;28709;52.030;5.652;2022-10-16T16:26:26;17.40;99.90
43089;DHT22;28709;52.030;5.652;2022-10-16T16:28:55;17.40;99.90
43089;DHT22;28709;52.030;5.652;2022-10-16T16:31:26;17.30;99.90
43089;DHT22;28709;52.030;5.652;2022-10-16T16:33:52;17.20;99.90
43089;DHT22;28709;52.030;5.652;2022-10-16T16:36:18;17.20;99.90
43089;DHT22;28709;52.030;5.652;2022-10-16T16:38:45;17.10;99.90
43089;DHT22;28709;52.030;5.652;2022-10-16T16:41:17;17.10;99.90
43089;DHT22;28709;52.030;5.652;2022-10-16T16:43:43;17.00;99.90
43089;DHT22;28709;52.030;5.652;2022-10-16T16:46:09;17.00;99.90
43089;DHT22;28709;52.030;5.652;2022-10-16T16:48:35;16.90;99.90
43089;DHT22;28709;52.030;5.652;2022-10-16T16:51:11;16.90;99.90
43089;DHT22;28709;52.030;5.652;2022-10-16T16:53:41;16.80;99.90
43089;DHT22;28709;52.030;5.652;2022-10-16T16:56:07;16.80;99.90
43089;DHT22;28709;52.030;5.652;2022-10-16T16:58:33;16.80;99.90
43089;DHT22;28709;52.030;5.652;2022-10-16T17:00:59;16.70;99.90
43089;DHT22;28709;52.030;5.652;2022-10-16T17:03:28;16.60;99.90
43089;DHT22;28709;52.030;5.652;2022-10-16T17:06:07;16.50;99.90
43089;DHT22;28709;52.030;5.652;2022-10-16T17:08:34;16.50;99.90
43089;DHT22;28709;52.030;5.652;2022-10-16T17:11:00;16.40;99.90
43089;DHT22;28709;52.030;5.652;2022-10-16T17:13:28;16.30;99.90
43089;DHT22;28709;52.030;5.652;2022-10-16T17:15:54;16.30;99.90
43089;DHT22;28709;52.030;5.652;2022-10-16T17:18:21;16.30;99.90
43089;DHT22;28709;52.030;5.652;2022-10-16T17:20:47;16.20;99.90
43089;DHT22;28709;52.030;5.652;2022-10-16T17:23:14;16.20;99.90
43089;DHT22;28709;52.030;5.652;2022-10-16T17:25:41;16.20;99.90
43089;DHT22;28709;52.030;5.652;2022-10-16T17:28:07;16.20;99.90
43089;DHT22;28709;52.030;5.652;2022-10-16T17:30:34;16.20;99.90
43089;DHT22;28709;52.030;5.652;2022-10-16T17:33:03;16.10;99.90
43089;DHT22;28709;52.030;5.652;2022-10-16T17:35:34;16.10;99.90
43089;DHT22;28709;52.030;5.652;2022-10-16T17:38:00;16.10;99.90
43089;DHT22;28709;52.030;5.652;2022-10-16T17:40:26;16.10;99.90
43089;DHT22;28709;52.030;5.652;2022-10-16T17:42:51;16.10;99.90